Terminal Aerodrome Forecast
Issued by NWS Cleveland, OH

Home | Current Version | Previous Version | Graphics & Text | Print | Product List | Glossary On
Versions: 1 2 3 4 5 6 7 8 9 10 11 12 13 14 15 16 17 18 19 20 21 22 23
722
FTUS41 KCLE 180854 AAA
TAFCLE
TAF AMD
KCLE 180854Z 1809/1912 22010KT P6SM SKC WS015/25045KT
     FM181100 22012KT P6SM SCT250
     FM181700 22012G20KT P6SM BKN250
     FM182200 24010KT P6SM SCT250=

USA.gov is the U.S. government's official web portal to all federal, state and local government web resources and services.